Time;durP1;ratioP1;P1;durP2;ratioP2;P2;SDS_P1;SDS_P2;PMS_P1;PMS_P2;Temp;Humidity;BMP_temperature;BMP_pressure;BME280_temperature;BME280_humidity;BME280_pressure;Samples;Min_cycle;Max_cycle;Signal;HPM_P1;HPM_P2
2023/08/20 00:01:15;;;;;;;7.57;5.53;;;;;;;;;;5045954;28;20064;-82
2023/08/20 00:03:43;;;;;;;8.95;5.35;;;;;;;;;;5062319;28;20039;-82
2023/08/20 00:06:09;;;;;;;14.07;5.47;;;;;;;;;;5064446;28;20017;-82
2023/08/20 00:08:36;;;;;;;11.93;5.45;;;;;;;;;;5043970;28;20033;-82
2023/08/20 00:11:02;;;;;;;10.25;5.55;;;;;;;;;;5064191;28;20070;-82
2023/08/20 00:13:28;;;;;;;9.55;5.30;;;;;;;;;;5061817;28;20029;-82
2023/08/20 00:15:54;;;;;;;10.50;4.82;;;;;;;;;;5046631;28;20155;-82
2023/08/20 00:18:20;;;;;;;8.25;5.20;;;;;;;;;;5043700;28;20029;-82
2023/08/20 00:20:47;;;;;;;14.57;5.18;;;;;;;;;;5046342;28;20530;-82
2023/08/20 00:23:13;;;;;;;7.95;5.63;;;;;;;;;;5043641;28;20523;-82
2023/08/20 00:25:39;;;;;;;10.00;5.20;;;;;;;;;;5064566;28;20031;-82
2023/08/20 00:28:05;;;;;;;13.50;5.75;;;;;;;;;;5043495;28;20024;-82
2023/08/20 00:30:31;;;;;;;14.10;5.90;;;;;;;;;;5064564;28;20037;-82
2023/08/20 00:32:57;;;;;;;14.85;5.97;;;;;;;;;;5061294;28;20112;-82
2023/08/20 00:35:23;;;;;;;8.93;5.40;;;;;;;;;;5043213;28;20016;-82
2023/08/20 00:37:49;;;;;;;7.15;5.05;;;;;;;;;;5064488;28;20029;-82
2023/08/20 00:40:15;;;;;;;12.00;5.55;;;;;;;;;;5043164;28;20051;-82
2023/08/20 00:42:41;;;;;;;10.23;5.88;;;;;;;;;;5064461;28;20052;-82
2023/08/20 00:45:07;;;;;;;9.65;5.63;;;;;;;;;;5043310;28;20453;-82
2023/08/20 00:47:34;;;;;;;10.10;5.43;;;;;;;;;;5046889;28;20111;-82
2023/08/20 00:50:00;;;;;;;11.45;6.32;;;;;;;;;;5042832;28;20027;-82
2023/08/20 00:52:26;;;;;;;19.70;5.72;;;;;;;;;;5046930;28;20029;-82
2023/08/20 00:54:52;;;;;;;8.68;5.75;;;;;;;;;;5063582;28;20032;-82
2023/08/20 00:57:21;;;;;;;9.07;5.97;;;;;;;;;;5060921;28;20048;-82
2023/08/20 00:59:49;;;;;;;9.02;5.75;;;;;;;;;;5043199;28;20028;-82
2023/08/20 01:02:15;;;;;;;12.65;5.90;;;;;;;;;;5064103;28;20020;-82
2023/08/20 01:04:42;;;;;;;8.82;5.25;;;;;;;;;;5062844;28;20067;-82
2023/08/20 01:07:19;;;;;;;11.95;5.28;;;;;;;;;;5068048;28;20122;-82
2023/08/20 01:09:48;;;;;;;7.80;4.68;;;;;;;;;;5066623;28;20017;-82
2023/08/20 01:12:17;;;;;;;11.47;5.70;;;;;;;;;;5065588;28;20028;-82
2023/08/20 01:14:43;;;;;;;11.57;5.78;;;;;;;;;;5067335;28;20020;-82
2023/08/20 01:17:09;;;;;;;7.53;5.15;;;;;;;;;;5065400;28;20431;-83
2023/08/20 01:19:35;;;;;;;11.10;5.78;;;;;;;;;;5067255;28;20099;-82
2023/08/20 01:22:20;;;;;;;7.25;5.18;;;;;;;;;;5064781;28;20021;-82
2023/08/20 01:24:58;;;;;;;8.45;5.43;;;;;;;;;;5069944;28;20017;-82
2023/08/20 01:27:29;;;;;;;16.02;5.80;;;;;;;;;;5064861;28;20032;-82
2023/08/20 01:29:55;;;;;;;10.07;5.93;;;;;;;;;;5054033;28;20028;-82
2023/08/20 01:32:22;;;;;;;12.25;5.78;;;;;;;;;;5050007;28;20489;-82
2023/08/20 01:34:49;;;;;;;8.32;5.65;;;;;;;;;;5046590;28;20087;-82
2023/08/20 01:37:15;;;;;;;10.43;6.47;;;;;;;;;;5049659;28;20024;-82
2023/08/20 01:39:41;;;;;;;10.15;5.82;;;;;;;;;;5064168;28;20032;-82
2023/08/20 01:42:07;;;;;;;10.70;5.80;;;;;;;;;;5049222;28;20473;-82
2023/08/20 01:44:33;;;;;;;8.90;5.75;;;;;;;;;;5064382;28;20053;-82
2023/08/20 01:46:59;;;;;;;10.02;6.25;;;;;;;;;;5067292;28;20016;-83
2023/08/20 01:49:25;;;;;;;10.60;5.88;;;;;;;;;;5046167;28;20116;-82
2023/08/20 01:52:16;;;;;;;7.40;5.00;;;;;;;;;;5048811;28;20032;-82
2023/08/20 01:54:42;;;;;;;13.60;6.13;;;;;;;;;;5064217;28;20032;-82
2023/08/20 01:57:11;;;;;;;9.40;5.35;;;;;;;;;;5067834;28;20067;-82
2023/08/20 01:59:40;;;;;;;10.13;5.40;;;;;;;;;;5048921;28;20033;-83
2023/08/20 02:02:06;;;;;;;11.00;6.63;;;;;;;;;;5046407;28;20036;-82
2023/08/20 02:04:34;;;;;;;9.13;6.10;;;;;;;;;;5048331;28;20082;-82
2023/08/20 02:07:01;;;;;;;9.02;5.57;;;;;;;;;;5064740;28;20100;-82
2023/08/20 02:15:37;;;;;;;11.55;5.60;;;;;;;;;;5070493;28;20388;-83
2023/08/20 02:18:03;;;;;;;12.75;5.95;;;;;;;;;;5045746;28;20075;-82
2023/08/20 02:20:32;;;;;;;10.38;6.18;;;;;;;;;;5066956;28;20096;-82
2023/08/20 02:25:57;;;;;;;12.23;5.82;;;;;;;;;;5063920;28;20167;-82
2023/08/20 02:28:53;;;;;;;11.00;5.50;;;;;;;;;;5046344;28;20435;-83
2023/08/20 02:31:21;;;;;;;13.45;5.90;;;;;;;;;;5049835;28;20025;-82
2023/08/20 02:33:50;;;;;;;8.57;5.70;;;;;;;;;;5064544;28;20024;-82
2023/08/20 02:36:29;;;;;;;7.72;5.60;;;;;;;;;;5064152;28;20036;-82
2023/08/20 02:39:09;;;;;;;13.10;6.10;;;;;;;;;;5066688;28;20107;-82
2023/08/20 02:44:29;;;;;;;14.70;6.28;;;;;;;;;;5062637;28;20071;-82
2023/08/20 02:46:59;;;;;;;9.35;6.03;;;;;;;;;;5031641;28;20080;-82
2023/08/20 02:49:47;;;;;;;10.88;6.43;;;;;;;;;;5041760;28;20037;-82
2023/08/20 02:52:29;;;;;;;10.30;6.25;;;;;;;;;;5042866;28;20045;-82
2023/08/20 02:55:16;;;;;;;10.15;6.68;;;;;;;;;;5042858;28;20105;-83
2023/08/20 02:57:43;;;;;;;13.68;6.35;;;;;;;;;;5041790;28;20029;-82
2023/08/20 03:00:13;;;;;;;8.75;5.88;;;;;;;;;;5042986;28;20110;-82
2023/08/20 03:02:45;;;;;;;11.30;6.95;;;;;;;;;;5044440;28;20520;-82
2023/08/20 03:05:14;;;;;;;14.38;6.25;;;;;;;;;;5044571;28;20141;-83
2023/08/20 03:07:43;;;;;;;9.00;6.40;;;;;;;;;;5032565;28;20029;-82
2023/08/20 03:10:14;;;;;;;12.50;6.40;;;;;;;;;;5043123;28;20093;-82
2023/08/20 03:12:43;;;;;;;7.00;5.97;;;;;;;;;;5025171;28;20025;-82
2023/08/20 03:15:13;;;;;;;20.50;7.03;;;;;;;;;;5042151;28;20074;-81
2023/08/20 03:17:41;;;;;;;10.13;6.05;;;;;;;;;;5042501;28;20147;-82
2023/08/20 03:20:32;;;;;;;10.30;6.47;;;;;;;;;;5040929;28;20053;-82
2023/08/20 03:23:04;;;;;;;9.68;6.65;;;;;;;;;;5025598;28;20060;-82
2023/08/20 03:25:42;;;;;;;8.10;6.40;;;;;;;;;;5040571;28;20041;-82
2023/08/20 03:28:17;;;;;;;9.18;6.00;;;;;;;;;;5023509;28;20433;-82
2023/08/20 03:33:51;;;;;;;9.50;6.22;;;;;;;;;;5035465;28;20119;-82
2023/08/20 03:45:37;;;;;;;10.25;6.28;;;;;;;;;;5047440;28;20044;-82
2023/08/20 03:48:06;;;;;;;10.25;6.32;;;;;;;;;;5042634;28;20538;-82
2023/08/20 03:50:38;;;;;;;8.98;6.38;;;;;;;;;;5040618;28;20037;-82
2023/08/20 03:53:06;;;;;;;11.85;6.68;;;;;;;;;;5024724;28;20043;-82
2023/08/20 03:55:34;;;;;;;12.55;6.57;;;;;;;;;;5048566;28;20037;-82
2023/08/20 03:58:03;;;;;;;13.35;6.68;;;;;;;;;;5023987;28;20342;-82
2023/08/20 04:00:29;;;;;;;9.48;6.55;;;;;;;;;;5027893;28;20030;-82
2023/08/20 04:02:58;;;;;;;10.43;6.07;;;;;;;;;;5047420;28;20025;-83
2023/08/20 04:05:24;;;;;;;10.82;7.20;;;;;;;;;;5059367;28;20037;-82
2023/08/20 04:07:50;;;;;;;12.52;6.97;;;;;;;;;;5065606;28;20027;-82
2023/08/20 04:10:16;;;;;;;11.25;6.82;;;;;;;;;;5058150;28;20033;-82
2023/08/20 04:12:42;;;;;;;9.02;6.40;;;;;;;;;;5044901;28;20479;-82
2023/08/20 04:15:08;;;;;;;10.10;6.80;;;;;;;;;;5057665;28;20079;-82
2023/08/20 04:17:34;;;;;;;12.93;7.30;;;;;;;;;;5053770;28;20032;-86
2023/08/20 04:20:00;;;;;;;15.63;7.78;;;;;;;;;;5049567;28;20094;-83
2023/08/20 04:22:27;;;;;;;12.52;7.55;;;;;;;;;;5062157;28;20029;-82
2023/08/20 04:24:55;;;;;;;13.82;7.07;;;;;;;;;;5043278;28;20052;-82
2023/08/20 04:27:21;;;;;;;17.38;8.23;;;;;;;;;;5060009;28;20032;-82
2023/08/20 04:29:47;;;;;;;17.08;6.97;;;;;;;;;;5038206;28;20382;-82
2023/08/20 04:32:13;;;;;;;10.05;6.90;;;;;;;;;;5062927;28;20024;-82
2023/08/20 04:34:39;;;;;;;14.13;6.65;;;;;;;;;;5063609;28;20036;-82
2023/08/20 04:37:05;;;;;;;9.80;6.47;;;;;;;;;;5046050;28;20025;-82
2023/08/20 04:39:31;;;;;;;11.00;6.70;;;;;;;;;;5051414;28;20016;-81
2023/08/20 04:41:57;;;;;;;8.70;6.35;;;;;;;;;;5065576;28;20160;-82
2023/08/20 04:44:23;;;;;;;11.32;6.47;;;;;;;;;;5060938;28;20025;-81
2023/08/20 04:46:49;;;;;;;11.65;7.00;;;;;;;;;;5061220;28;20032;-83
2023/08/20 04:49:15;;;;;;;12.38;6.60;;;;;;;;;;5062373;28;20041;-82
2023/08/20 04:51:41;;;;;;;12.60;6.90;;;;;;;;;;5058658;28;20048;-82
2023/08/20 04:54:07;;;;;;;12.45;6.55;;;;;;;;;;5059175;28;20128;-82
2023/08/20 04:56:33;;;;;;;11.48;6.80;;;;;;;;;;5062003;28;20021;-82
2023/08/20 04:58:59;;;;;;;14.60;6.95;;;;;;;;;;5062212;28;20020;-82
2023/08/20 05:01:25;;;;;;;12.20;7.20;;;;;;;;;;5062364;28;20052;-82
2023/08/20 05:03:51;;;;;;;12.52;7.85;;;;;;;;;;5058947;28;20485;-82
2023/08/20 05:06:17;;;;;;;17.38;7.20;;;;;;;;;;5058308;28;20078;-82
2023/08/20 05:08:43;;;;;;;10.55;6.50;;;;;;;;;;5059382;28;20048;-82
2023/08/20 05:11:09;;;;;;;15.25;6.40;;;;;;;;;;5061367;28;20435;-82
2023/08/20 05:13:35;;;;;;;10.32;6.55;;;;;;;;;;5058852;28;20021;-81
2023/08/20 05:16:01;;;;;;;11.10;6.38;;;;;;;;;;5063473;28;20025;-83
2023/08/20 05:18:27;;;;;;;12.27;6.85;;;;;;;;;;5055750;28;20036;-82
2023/08/20 05:20:53;;;;;;;10.70;6.72;;;;;;;;;;5062646;28;20598;-82
2023/08/20 05:23:19;;;;;;;8.80;6.68;;;;;;;;;;5058605;28;20033;-83
2023/08/20 05:25:45;;;;;;;12.25;6.50;;;;;;;;;;5068351;28;20021;-83
2023/08/20 05:28:11;;;;;;;10.52;7.75;;;;;;;;;;5064114;28;20039;-82
2023/08/20 05:30:37;;;;;;;10.82;7.00;;;;;;;;;;5064779;28;20468;-83
2023/08/20 05:33:03;;;;;;;14.82;7.13;;;;;;;;;;5048817;28;20027;-83
2023/08/20 05:35:29;;;;;;;7.93;6.57;;;;;;;;;;5069051;28;20108;-83
2023/08/20 05:37:55;;;;;;;14.48;7.82;;;;;;;;;;5044663;28;20143;-83
2023/08/20 05:40:21;;;;;;;13.82;7.25;;;;;;;;;;5047107;28;20028;-82
2023/08/20 05:42:47;;;;;;;11.73;7.07;;;;;;;;;;5061347;28;20032;-82
2023/08/20 05:45:13;;;;;;;19.85;7.43;;;;;;;;;;5059620;28;20025;-83
2023/08/20 05:47:39;;;;;;;11.00;7.30;;;;;;;;;;5061203;28;20076;-83
2023/08/20 05:50:05;;;;;;;11.07;6.95;;;;;;;;;;5057274;28;20041;-82
2023/08/20 05:52:31;;;;;;;10.60;6.85;;;;;;;;;;5059944;28;20036;-82
2023/08/20 05:54:57;;;;;;;12.73;7.30;;;;;;;;;;5060649;28;20581;-82
2023/08/20 05:57:23;;;;;;;8.90;6.85;;;;;;;;;;5064345;28;20055;-82
2023/08/20 05:59:49;;;;;;;10.57;6.88;;;;;;;;;;5059295;28;20075;-82
2023/08/20 06:02:19;;;;;;;12.70;7.78;;;;;;;;;;5050773;28;20028;-82
2023/08/20 06:04:45;;;;;;;13.13;7.85;;;;;;;;;;5062565;28;20019;-82
2023/08/20 06:07:11;;;;;;;13.10;8.20;;;;;;;;;;5061076;28;20071;-82
2023/08/20 06:09:37;;;;;;;13.55;7.93;;;;;;;;;;5061695;28;20381;-82
2023/08/20 06:12:03;;;;;;;10.57;7.68;;;;;;;;;;5062219;28;20033;-82
2023/08/20 06:14:29;;;;;;;14.55;8.27;;;;;;;;;;5060582;28;20024;-82
2023/08/20 06:16:55;;;;;;;14.10;6.93;;;;;;;;;;5062570;28;20021;-82
2023/08/20 06:19:21;;;;;;;9.90;5.70;;;;;;;;;;5066106;28;20025;-83
2023/08/20 06:21:47;;;;;;;12.13;7.35;;;;;;;;;;5066750;28;20067;-83
2023/08/20 06:24:13;;;;;;;14.27;7.45;;;;;;;;;;5065414;28;20468;-82
2023/08/20 06:26:39;;;;;;;16.08;7.50;;;;;;;;;;5056378;28;20036;-82
2023/08/20 06:29:05;;;;;;;13.35;7.85;;;;;;;;;;5059605;28;20120;-82
2023/08/20 06:31:31;;;;;;;15.85;7.68;;;;;;;;;;5064750;28;20151;-82
2023/08/20 06:33:57;;;;;;;14.50;7.93;;;;;;;;;;5061318;28;20023;-82
2023/08/20 06:36:23;;;;;;;10.98;7.78;;;;;;;;;;5061204;28;20562;-82
2023/08/20 06:38:49;;;;;;;14.57;7.60;;;;;;;;;;5057925;28;20017;-82
2023/08/20 06:41:15;;;;;;;11.27;7.93;;;;;;;;;;5058099;28;20185;-82
2023/08/20 06:43:41;;;;;;;11.48;7.35;;;;;;;;;;5058550;28;20024;-82
2023/08/20 06:46:07;;;;;;;14.70;7.72;;;;;;;;;;5060750;28;20025;-82
2023/08/20 06:48:33;;;;;;;8.38;6.30;;;;;;;;;;5058113;28;20060;-81
2023/08/20 06:50:59;;;;;;;13.75;8.02;;;;;;;;;;5061560;28;20065;-83
2023/08/20 06:53:25;;;;;;;14.07;8.30;;;;;;;;;;5060703;28;20021;-82
2023/08/20 06:55:51;;;;;;;19.05;8.20;;;;;;;;;;5061149;28;20409;-83
2023/08/20 06:58:17;;;;;;;16.67;7.82;;;;;;;;;;5062252;28;20059;-83
2023/08/20 07:00:43;;;;;;;9.40;6.53;;;;;;;;;;5062085;28;20024;-82
2023/08/20 07:03:09;;;;;;;14.95;8.40;;;;;;;;;;5059484;28;20378;-82
2023/08/20 07:05:34;;;;;;;15.90;7.97;;;;;;;;;;5059501;28;20029;-82
2023/08/20 07:08:00;;;;;;;9.75;7.22;;;;;;;;;;5042889;28;20032;-83
2023/08/20 07:10:26;;;;;;;13.05;7.65;;;;;;;;;;5045533;28;20056;-82
2023/08/20 07:12:52;;;;;;;14.05;7.10;;;;;;;;;;5051835;28;20039;-83
2023/08/20 07:15:18;;;;;;;13.25;6.40;;;;;;;;;;5048520;28;20021;-81
2023/08/20 07:17:44;;;;;;;17.40;7.43;;;;;;;;;;5045556;28;20032;-82
2023/08/20 07:20:10;;;;;;;12.07;6.93;;;;;;;;;;5059153;28;20032;-81
2023/08/20 07:22:36;;;;;;;11.60;5.93;;;;;;;;;;5061877;28;20052;-80
2023/08/20 07:25:03;;;;;;;15.35;7.07;;;;;;;;;;5064003;28;20031;-80
2023/08/20 07:27:29;;;;;;;18.58;7.38;;;;;;;;;;5062785;28;20021;-80
2023/08/20 07:29:54;;;;;;;9.43;6.18;;;;;;;;;;5059662;28;20068;-81
2023/08/20 07:32:21;;;;;;;9.55;6.35;;;;;;;;;;5059565;28;20025;-81
2023/08/20 07:34:46;;;;;;;13.35;7.43;;;;;;;;;;5053248;28;20028;-81
2023/08/20 07:37:12;;;;;;;10.75;5.22;;;;;;;;;;5062050;28;20036;-81
2023/08/20 07:39:40;;;;;;;11.45;6.18;;;;;;;;;;5059224;28;20029;-80
2023/08/20 07:42:06;;;;;;;12.07;6.13;;;;;;;;;;5058167;28;20035;-82
2023/08/20 07:44:32;;;;;;;14.23;6.93;;;;;;;;;;5046468;28;20029;-81
2023/08/20 07:46:58;;;;;;;10.70;6.25;;;;;;;;;;5059446;28;20021;-81
2023/08/20 07:49:24;;;;;;;7.70;5.90;;;;;;;;;;5051623;28;20057;-81
2023/08/20 07:51:52;;;;;;;13.20;6.78;;;;;;;;;;5058517;28;20516;-82
2023/08/20 07:54:18;;;;;;;14.90;6.30;;;;;;;;;;5057551;28;20039;-82
2023/08/20 07:56:47;;;;;;;9.57;6.00;;;;;;;;;;5059861;28;20025;-83
2023/08/20 07:59:13;;;;;;;9.32;4.88;;;;;;;;;;5059118;28;20029;-83
2023/08/20 08:01:39;;;;;;;11.02;5.10;;;;;;;;;;5062265;28;20484;-81
2023/08/20 08:04:05;;;;;;;12.30;5.65;;;;;;;;;;5051867;28;20025;-81
2023/08/20 08:06:31;;;;;;;15.85;5.88;;;;;;;;;;5062670;28;20429;-82
2023/08/20 08:08:57;;;;;;;10.90;6.40;;;;;;;;;;5054702;28;20107;-81
2023/08/20 08:11:24;;;;;;;7.13;5.40;;;;;;;;;;5057889;28;20488;-81
2023/08/20 08:13:50;;;;;;;13.20;5.80;;;;;;;;;;5064460;28;20028;-82
2023/08/20 08:16:16;;;;;;;9.13;6.20;;;;;;;;;;5066029;28;20036;-82
2023/08/20 08:18:42;;;;;;;14.00;5.78;;;;;;;;;;5064377;28;20025;-82
2023/08/20 08:21:09;;;;;;;8.30;5.25;;;;;;;;;;5060733;28;20036;-82
2023/08/20 08:23:34;;;;;;;15.88;5.95;;;;;;;;;;5052575;28;20017;-82
2023/08/20 08:26:00;;;;;;;10.68;5.78;;;;;;;;;;5059011;28;20115;-82
2023/08/20 08:28:26;;;;;;;8.32;4.57;;;;;;;;;;5062753;28;20024;-82
2023/08/20 08:30:52;;;;;;;7.38;5.07;;;;;;;;;;5062227;28;20132;-83
2023/08/20 08:33:18;;;;;;;15.85;5.63;;;;;;;;;;5058509;28;20432;-81
2023/08/20 08:35:44;;;;;;;10.70;5.07;;;;;;;;;;5058882;28;20048;-80
2023/08/20 08:38:10;;;;;;;7.70;5.78;;;;;;;;;;5055441;28;20069;-82
2023/08/20 08:40:36;;;;;;;8.20;4.25;;;;;;;;;;5059710;28;20020;-82
2023/08/20 08:43:03;;;;;;;7.95;5.20;;;;;;;;;;5055004;28;20366;-81
2023/08/20 08:45:29;;;;;;;13.52;5.78;;;;;;;;;;5064298;28;20025;-81
2023/08/20 08:47:55;;;;;;;8.93;5.68;;;;;;;;;;5060627;28;20025;-82
2023/08/20 08:50:21;;;;;;;10.73;4.05;;;;;;;;;;5061784;28;20068;-83
2023/08/20 08:52:48;;;;;;;14.07;5.30;;;;;;;;;;5060244;28;20036;-82
2023/08/20 08:55:13;;;;;;;9.57;4.53;;;;;;;;;;5061736;28;20358;-80
2023/08/20 08:57:40;;;;;;;12.85;5.85;;;;;;;;;;5055500;28;20036;-82
2023/08/20 09:00:06;;;;;;;18.85;5.80;;;;;;;;;;5059628;28;20108;-83
2023/08/20 09:02:32;;;;;;;15.38;5.55;;;;;;;;;;5064622;28;20024;-82
2023/08/20 09:04:58;;;;;;;14.18;5.22;;;;;;;;;;5054846;28;20079;-83
2023/08/20 09:07:24;;;;;;;7.95;4.53;;;;;;;;;;5060138;28;20100;-82
2023/08/20 09:09:50;;;;;;;9.82;5.28;;;;;;;;;;5060726;28;20494;-81
2023/08/20 09:12:17;;;;;;;10.48;4.10;;;;;;;;;;5056696;28;20021;-82
2023/08/20 09:14:47;;;;;;;10.90;4.78;;;;;;;;;;5059549;28;20032;-82
2023/08/20 09:17:13;;;;;;;13.10;5.00;;;;;;;;;;5055513;28;20484;-82
2023/08/20 09:19:39;;;;;;;6.57;4.63;;;;;;;;;;5063586;28;20052;-82
2023/08/20 09:22:06;;;;;;;8.38;4.10;;;;;;;;;;5060483;28;20358;-82
2023/08/20 09:24:39;;;;;;;9.55;4.40;;;;;;;;;;5055688;28;20028;-82
2023/08/20 09:27:06;;;;;;;15.27;4.57;;;;;;;;;;5058341;28;20028;-81
2023/08/20 09:29:33;;;;;;;20.85;4.68;;;;;;;;;;5064276;28;20036;-82
2023/08/20 09:32:02;;;;;;;9.02;4.10;;;;;;;;;;5058694;28;20399;-82
2023/08/20 09:34:41;;;;;;;8.90;4.80;;;;;;;;;;5063199;28;20068;-81
2023/08/20 09:37:11;;;;;;;11.55;4.00;;;;;;;;;;5064012;28;20021;-81
2023/08/20 09:39:37;;;;;;;7.68;4.25;;;;;;;;;;5063790;28;20031;-82
2023/08/20 09:42:04;;;;;;;12.15;4.15;;;;;;;;;;5065900;28;20033;-84
2023/08/20 09:44:34;;;;;;;8.35;4.20;;;;;;;;;;5066293;28;20028;-84
2023/08/20 09:47:00;;;;;;;;;;;;;;;;;;5053408;28;20108;-84
2023/08/20 09:49:29;;;;;;;5.93;4.20;;;;;;;;;;5067322;28;19943;-85
2023/08/20 09:51:58;;;;;;;9.35;4.05;;;;;;;;;;5045360;28;20099;-84
2023/08/20 09:54:28;;;;;;;6.87;4.43;;;;;;;;;;5048650;28;20380;-84
2023/08/20 09:56:55;;;;;;;10.40;4.50;;;;;;;;;;5066912;28;20036;-84
2023/08/20 09:59:22;;;;;;;20.65;4.38;;;;;;;;;;5061504;28;20270;-86
2023/08/20 10:01:49;;;;;;;7.78;4.60;;;;;;;;;;5063853;28;20424;-84
2023/08/20 10:04:16;;;;;;;8.50;4.10;;;;;;;;;;5047760;28;20488;-84
2023/08/20 10:06:42;;;;;;;7.63;4.47;;;;;;;;;;5050392;28;20020;-83
2023/08/20 10:09:08;;;;;;;7.57;4.38;;;;;;;;;;5047044;28;20039;-83
2023/08/20 10:11:34;;;;;;;7.60;3.80;;;;;;;;;;5065367;28;20024;-84
2023/08/20 10:14:00;;;;;;;5.93;4.00;;;;;;;;;;5061612;28;20432;-84
2023/08/20 10:16:28;;;;;;;12.05;4.28;;;;;;;;;;5047063;28;20552;-84
2023/08/20 10:18:55;;;;;;;11.68;4.30;;;;;;;;;;5045476;28;20013;-83
2023/08/20 10:21:25;;;;;;;11.27;5.00;;;;;;;;;;5043536;28;20047;-84
2023/08/20 10:23:51;;;;;;;;;;;;;;;;;;5053204;28;20058;-83
2023/08/20 10:26:18;;;;;;;9.15;5.13;;;;;;;;;;5063058;28;20012;-83
2023/08/20 10:28:44;;;;;;;6.60;3.88;;;;;;;;;;5049988;28;20369;-85
2023/08/20 10:31:12;;;;;;;6.07;3.60;;;;;;;;;;5051698;28;20029;-84
2023/08/20 10:33:39;;;;;;;9.25;4.10;;;;;;;;;;5039923;28;20030;-84
2023/08/20 10:36:15;;;;;;;10.45;3.95;;;;;;;;;;5062411;28;20036;-84
2023/08/20 10:38:41;;;;;;;13.13;4.43;;;;;;;;;;5048970;28;20392;-84
2023/08/20 10:41:08;;;;;;;12.10;3.95;;;;;;;;;;5053707;28;20034;-85
2023/08/20 10:43:41;;;;;;;6.05;4.13;;;;;;;;;;5062167;28;20426;-84
2023/08/20 10:46:09;;;;;;;9.75;4.00;;;;;;;;;;5065564;28;20035;-84
2023/08/20 10:48:36;;;;;;;10.93;4.55;;;;;;;;;;5046638;28;20029;-83
2023/08/20 10:51:12;;;;;;;8.40;3.78;;;;;;;;;;5047100;28;20046;-84
2023/08/20 10:53:38;;;;;;;9.75;4.43;;;;;;;;;;5042678;28;20017;-85
2023/08/20 10:56:15;;;;;;;10.05;3.78;;;;;;;;;;5040366;28;20039;-83
2023/08/20 10:58:42;;;;;;;11.25;4.18;;;;;;;;;;5052697;28;20025;-84
2023/08/20 11:01:15;;;;;;;11.07;4.63;;;;;;;;;;5060921;28;20035;-84
2023/08/20 11:03:42;;;;;;;13.98;4.53;;;;;;;;;;5046824;28;20021;-84
2023/08/20 11:06:08;;;;;;;7.78;4.28;;;;;;;;;;5068004;28;20086;-84
2023/08/20 11:08:34;;;;;;;9.27;4.47;;;;;;;;;;5043746;28;20048;-84
2023/08/20 11:11:01;;;;;;;9.00;5.00;;;;;;;;;;5065389;28;20543;-85
2023/08/20 11:13:27;;;;;;;10.13;3.97;;;;;;;;;;5063308;28;20079;-84
2023/08/20 11:15:53;;;;;;;9.88;5.00;;;;;;;;;;5055812;28;20032;-84
2023/08/20 11:18:19;;;;;;;9.35;4.55;;;;;;;;;;5066223;28;20027;-84
2023/08/20 11:20:45;;;;;;;8.68;5.05;;;;;;;;;;5048861;28;20048;-85
2023/08/20 11:23:12;;;;;;;13.98;4.57;;;;;;;;;;5057915;28;20028;-84
2023/08/20 11:25:46;;;;;;;12.30;4.47;;;;;;;;;;5062299;28;20024;-84
2023/08/20 11:28:13;;;;;;;7.22;4.68;;;;;;;;;;5063274;28;20718;-84
2023/08/20 11:30:39;;;;;;;6.50;3.97;;;;;;;;;;5060255;28;20493;-84
2023/08/20 11:33:05;;;;;;;17.70;4.07;;;;;;;;;;5046370;28;20032;-84
2023/08/20 11:35:31;;;;;;;8.57;4.20;;;;;;;;;;5044002;28;20037;-84
2023/08/20 11:37:58;;;;;;;8.02;3.58;;;;;;;;;;5051426;28;20063;-84
2023/08/20 11:40:24;;;;;;;4.55;3.70;;;;;;;;;;5048388;28;20028;-83
2023/08/20 11:42:53;;;;;;;12.82;3.80;;;;;;;;;;5063363;28;20024;-84
2023/08/20 11:45:19;;;;;;;8.37;3.87;;;;;;;;;;5045563;28;20467;-84
2023/08/20 11:47:45;;;;;;;9.82;3.83;;;;;;;;;;5048330;28;20111;-85
2023/08/20 11:50:11;;;;;;;6.38;3.85;;;;;;;;;;5060925;28;20097;-84
2023/08/20 11:52:39;;;;;;;6.90;3.80;;;;;;;;;;5060892;28;20100;-85
2023/08/20 11:55:06;;;;;;;8.50;4.15;;;;;;;;;;5063940;28;20032;-84
2023/08/20 11:57:32;;;;;;;10.50;4.00;;;;;;;;;;5061854;28;20029;-84
2023/08/20 12:00:08;;;;;;;13.82;4.57;;;;;;;;;;5064219;28;20020;-84
2023/08/20 12:02:34;;;;;;;12.27;3.83;;;;;;;;;;5057221;28;20112;-83
2023/08/20 12:05:00;;;;;;;8.40;3.40;;;;;;;;;;5061684;28;20561;-85
2023/08/20 12:07:27;;;;;;;6.93;3.60;;;;;;;;;;5061382;28;20028;-85
2023/08/20 12:09:53;;;;;;;6.18;4.25;;;;;;;;;;5048643;28;20485;-84
2023/08/20 12:12:20;;;;;;;8.25;3.47;;;;;;;;;;5061942;28;20024;-84
2023/08/20 12:14:47;;;;;;;10.63;3.55;;;;;;;;;;5063955;28;20480;-84
2023/08/20 12:17:13;;;;;;;8.70;4.13;;;;;;;;;;5065164;28;20028;-84
2023/08/20 12:19:39;;;;;;;9.65;4.13;;;;;;;;;;5044659;28;20023;-86
2023/08/20 12:22:05;;;;;;;8.18;4.30;;;;;;;;;;5062019;28;20025;-84
2023/08/20 12:24:31;;;;;;;9.43;4.10;;;;;;;;;;5065634;28;20100;-84
2023/08/20 12:26:57;;;;;;;5.85;3.70;;;;;;;;;;5065832;28;20512;-84
2023/08/20 12:29:23;;;;;;;11.27;4.13;;;;;;;;;;5060317;28;20040;-85
2023/08/20 12:31:49;;;;;;;9.57;4.13;;;;;;;;;;5046875;28;20123;-83
2023/08/20 12:34:15;;;;;;;9.93;4.28;;;;;;;;;;5048660;28;20517;-83
2023/08/20 12:36:41;;;;;;;6.43;3.72;;;;;;;;;;5039594;28;20033;-82
2023/08/20 12:39:08;;;;;;;10.25;4.00;;;;;;;;;;5062021;28;20470;-82
2023/08/20 12:41:36;;;;;;;5.85;3.60;;;;;;;;;;5042332;28;20028;-83
2023/08/20 12:44:02;;;;;;;9.43;3.50;;;;;;;;;;5057261;28;20055;-83
2023/08/20 12:46:28;;;;;;;9.32;4.18;;;;;;;;;;5047149;28;20017;-83
2023/08/20 12:48:54;;;;;;;10.18;3.72;;;;;;;;;;5063767;28;20028;-84
2023/08/20 12:51:20;;;;;;;10.73;4.10;;;;;;;;;;5059032;28;20159;-84
2023/08/20 12:53:46;;;;;;;10.50;4.00;;;;;;;;;;5060538;28;20048;-84
2023/08/20 12:56:12;;;;;;;6.68;4.10;;;;;;;;;;5061575;28;20032;-83
2023/08/20 12:58:39;;;;;;;7.35;3.40;;;;;;;;;;5044434;28;20380;-83
2023/08/20 13:01:04;;;;;;;12.02;3.40;;;;;;;;;;5062913;28;20422;-85
2023/08/20 13:03:31;;;;;;;7.05;3.95;;;;;;;;;;5048285;28;20111;-86
2023/08/20 13:05:57;;;;;;;10.32;3.50;;;;;;;;;;5051799;28;20028;-87
2023/08/20 13:08:23;;;;;;;7.43;3.90;;;;;;;;;;5053425;28;20029;-86
2023/08/20 13:10:59;;;;;;;12.77;4.60;;;;;;;;;;5054339;28;20033;-86
2023/08/20 13:13:25;;;;;;;9.40;3.95;;;;;;;;;;5048303;28;20036;-84
2023/08/20 13:15:52;;;;;;;5.72;3.78;;;;;;;;;;5049676;28;20689;-87
2023/08/20 13:18:18;;;;;;;5.50;3.83;;;;;;;;;;5042375;28;20120;-83
2023/08/20 13:20:44;;;;;;;5.07;3.50;;;;;;;;;;5065582;28;20068;-84
2023/08/20 13:23:10;;;;;;;7.65;4.28;;;;;;;;;;5067445;28;20552;-86
2023/08/20 13:25:36;;;;;;;7.40;3.70;;;;;;;;;;5059195;28;20025;-85
2023/08/20 13:28:03;;;;;;;9.43;3.85;;;;;;;;;;5045701;28;20404;-84
2023/08/20 13:30:29;;;;;;;6.38;4.18;;;;;;;;;;5066760;28;20029;-86
2023/08/20 13:32:55;;;;;;;10.68;4.40;;;;;;;;;;5062575;28;20025;-84
2023/08/20 13:35:22;;;;;;;11.32;4.40;;;;;;;;;;5065165;28;20431;-83
2023/08/20 13:37:48;;;;;;;5.57;3.95;;;;;;;;;;5066954;28;20028;-83
2023/08/20 13:40:14;;;;;;;10.07;3.80;;;;;;;;;;5065775;28;20025;-83
2023/08/20 13:42:40;;;;;;;9.65;4.57;;;;;;;;;;5066726;28;20504;-83
2023/08/20 13:45:07;;;;;;;15.40;4.22;;;;;;;;;;5060361;28;20070;-82
2023/08/20 13:47:33;;;;;;;6.18;4.00;;;;;;;;;;5045844;28;20028;-82
2023/08/20 13:49:59;;;;;;;9.40;3.78;;;;;;;;;;5069291;28;20035;-83
2023/08/20 13:52:25;;;;;;;7.57;3.90;;;;;;;;;;5065463;28;20032;-84
2023/08/20 13:54:51;;;;;;;8.93;3.75;;;;;;;;;;5058565;28;20028;-83
2023/08/20 13:57:17;;;;;;;6.22;3.67;;;;;;;;;;5050711;28;20094;-83
2023/08/20 13:59:43;;;;;;;10.13;3.78;;;;;;;;;;5056724;28;20017;-84
2023/08/20 14:02:09;;;;;;;6.13;3.28;;;;;;;;;;5046432;28;20017;-83
2023/08/20 14:04:36;;;;;;;10.63;3.88;;;;;;;;;;5047089;28;20071;-84
2023/08/20 14:07:02;;;;;;;7.22;4.30;;;;;;;;;;5062888;28;20100;-82
2023/08/20 14:09:28;;;;;;;7.45;3.70;;;;;;;;;;5044279;28;20115;-82
2023/08/20 14:11:55;;;;;;;13.25;3.97;;;;;;;;;;5062641;28;20456;-83
2023/08/20 14:14:21;;;;;;;8.35;4.07;;;;;;;;;;5058324;28;20540;-83
2023/08/20 14:16:47;;;;;;;10.23;3.75;;;;;;;;;;5063925;28;20635;-83
2023/08/20 14:19:13;;;;;;;7.80;3.88;;;;;;;;;;5062694;28;20032;-83
2023/08/20 14:21:39;;;;;;;10.93;3.78;;;;;;;;;;5059290;28;20076;-84
2023/08/20 14:24:05;;;;;;;7.32;3.20;;;;;;;;;;5064082;28;20029;-83
2023/08/20 14:26:31;;;;;;;7.03;3.75;;;;;;;;;;5060344;28;20025;-83
2023/08/20 14:28:57;;;;;;;10.32;2.75;;;;;;;;;;5041633;28;20027;-84
2023/08/20 14:31:23;;;;;;;10.32;3.15;;;;;;;;;;5061196;28;20024;-82
2023/08/20 14:33:49;;;;;;;8.38;3.53;;;;;;;;;;5061993;28;20024;-85
2023/08/20 14:36:15;;;;;;;6.72;3.47;;;;;;;;;;5062672;28;20035;-84
2023/08/20 14:38:41;;;;;;;6.63;3.63;;;;;;;;;;5046741;28;20025;-86
2023/08/20 14:41:07;;;;;;;6.07;3.47;;;;;;;;;;5059578;28;20020;-85
2023/08/20 14:43:33;;;;;;;6.32;3.47;;;;;;;;;;5058990;28;20035;-84
2023/08/20 14:45:58;;;;;;;8.55;3.28;;;;;;;;;;5062877;28;20017;-85
2023/08/20 14:48:25;;;;;;;12.05;3.88;;;;;;;;;;5038621;28;20473;-84
2023/08/20 14:50:51;;;;;;;6.55;3.60;;;;;;;;;;5062507;28;20079;-85
2023/08/20 14:53:17;;;;;;;5.70;3.30;;;;;;;;;;5043513;28;20032;-84
2023/08/20 14:55:44;;;;;;;10.38;3.95;;;;;;;;;;5058743;28;20397;-84
2023/08/20 14:58:10;;;;;;;9.82;3.88;;;;;;;;;;5050048;28;20487;-83
2023/08/20 15:00:36;;;;;;;5.18;3.58;;;;;;;;;;5064001;28;20103;-84